createdAt,value
2022-08-10T00:00:56.022Z,22.67
2022-08-10T00:03:24.249Z,22.68
2022-08-10T00:05:55.391Z,22.68
2022-08-10T00:08:25.470Z,22.71
2022-08-10T00:10:54.274Z,22.78
2022-08-10T00:13:23.298Z,22.76
2022-08-10T00:15:55.714Z,22.70
2022-08-10T00:18:35.148Z,22.69
2022-08-10T00:21:09.877Z,22.60
2022-08-10T00:23:39.390Z,22.60
2022-08-10T00:26:08.157Z,22.58
2022-08-10T00:28:36.407Z,22.50
2022-08-10T00:31:04.643Z,22.43
2022-08-10T00:33:32.827Z,22.43
2022-08-10T00:36:03.615Z,22.41
2022-08-10T00:38:34.793Z,22.39
2022-08-10T00:41:03.146Z,22.38
2022-08-10T00:43:31.487Z,22.36
2022-08-10T00:46:00.476Z,22.33
2022-08-10T00:48:31.134Z,22.32
2022-08-10T00:51:00.661Z,22.31
2022-08-10T00:53:29.454Z,22.36
2022-08-10T00:56:35.039Z,22.27
2022-08-10T00:58:48.228Z,22.27
2022-08-10T01:02:11.072Z,22.26
2022-08-10T01:04:36.368Z,22.23
2022-08-10T01:07:07.509Z,22.25
2022-08-10T01:09:55.721Z,22.28
2022-08-10T01:12:38.259Z,22.25
2022-08-10T01:15:15.368Z,22.24
2022-08-10T01:17:53.755Z,22.24
2022-08-10T01:20:37.289Z,22.25
2022-08-10T01:23:37.688Z,22.26
2022-08-10T01:26:40.646Z,22.20
2022-08-10T01:29:53.760Z,22.25
2022-08-10T01:32:31.684Z,22.15
2022-08-10T01:35:07.490Z,22.17
2022-08-10T01:37:40.820Z,22.09
2022-08-10T01:40:13.795Z,22.10
2022-08-10T01:42:47.440Z,22.15
2022-08-10T01:45:17.489Z,22.18
2022-08-10T01:48:06.164Z,22.19
2022-08-10T01:50:58.924Z,22.09
2022-08-10T01:53:40.813Z,22.10
2022-08-10T01:56:12.045Z,22.08
2022-08-10T01:58:41.419Z,22.03
2022-08-10T02:01:16.951Z,21.97
2022-08-10T02:04:04.462Z,22.04
2022-08-10T02:06:36.995Z,22.08
2022-08-10T02:09:07.731Z,22.04
2022-08-10T02:11:55.799Z,21.94
2022-08-10T02:14:32.995Z,22.05
2022-08-10T02:17:05.199Z,22.00
2022-08-10T02:19:38.229Z,22.03
2022-08-10T02:22:37.919Z,22.02
2022-08-10T02:25:00.511Z,22.01
2022-08-10T02:27:30.101Z,22.05
2022-08-10T02:30:00.230Z,22.12
2022-08-10T02:32:36.179Z,22.10
2022-08-10T02:35:21.961Z,22.15
2022-08-10T02:37:54.449Z,22.16
2022-08-10T02:45:01.645Z,22.15
2022-08-10T02:45:19.855Z,22.12
2022-08-10T02:46:19.862Z,22.13
2022-08-10T02:48:59.167Z,22.14
2022-08-10T02:52:06.266Z,22.15
2022-08-10T02:54:24.216Z,22.12
2022-08-10T02:56:56.621Z,22.09
2022-08-10T02:59:39.806Z,22.08
2022-08-10T03:02:11.962Z,22.13
2022-08-10T03:04:57.082Z,22.03
2022-08-10T03:07:42.908Z,22.07
2022-08-10T03:10:18.248Z,22.09
2022-08-10T03:12:50.912Z,22.11
2022-08-10T03:15:22.252Z,22.11
2022-08-10T03:17:56.951Z,22.10
2022-08-10T03:20:37.956Z,22.23
2022-08-10T03:23:13.005Z,22.28
2022-08-10T03:25:53.111Z,22.25
2022-08-10T03:28:23.883Z,22.25
2022-08-10T03:30:53.227Z,22.38
2022-08-10T03:33:23.375Z,22.64
2022-08-10T03:36:40.397Z,22.96
2022-08-10T03:38:43.756Z,23.35
2022-08-10T03:41:16.226Z,23.39
2022-08-10T03:43:47.917Z,23.54
2022-08-10T03:46:19.511Z,23.64
2022-08-10T03:48:51.125Z,23.88
2022-08-10T03:51:20.768Z,24.11
2022-08-10T03:54:05.007Z,24.26
2022-08-10T03:56:36.582Z,24.35
2022-08-10T03:59:06.168Z,24.32
2022-08-10T04:02:45.981Z,24.37
2022-08-10T04:04:25.314Z,24.36
2022-08-10T04:06:55.708Z,24.61
2022-08-10T04:09:42.878Z,25.01
2022-08-10T04:12:15.897Z,24.95
2022-08-10T04:14:51.431Z,25.09
2022-08-10T04:18:03.728Z,24.89
2022-08-10T04:20:19.630Z,24.56
2022-08-10T04:22:52.501Z,24.89
2022-08-10T04:25:23.716Z,24.42
2022-08-10T04:27:52.432Z,24.58
2022-08-10T04:30:21.443Z,24.56
2022-08-10T04:32:55.276Z,24.66
2022-08-10T04:35:25.295Z,24.69
2022-08-10T04:37:54.897Z,24.40
2022-08-10T04:40:30.193Z,24.80
2022-08-10T04:43:10.775Z,24.85
2022-08-10T04:45:48.293Z,24.71
2022-08-10T04:48:42.838Z,25.09
2022-08-10T04:51:18.508Z,25.44
2022-08-10T04:54:03.107Z,25.90
2022-08-10T04:56:37.540Z,25.96
2022-08-10T04:59:06.990Z,26.35
2022-08-10T05:02:21.800Z,26.27
2022-08-10T05:04:36.985Z,25.76
2022-08-10T05:07:09.429Z,26.12
2022-08-10T05:10:04.633Z,25.92
2022-08-10T05:12:27.945Z,26.68
2022-08-10T05:14:56.217Z,26.90
2022-08-10T05:17:24.957Z,26.67
2022-08-10T05:20:03.841Z,26.90
2022-08-10T05:22:38.512Z,26.94
2022-08-10T05:25:08.390Z,26.73
2022-08-10T05:27:38.413Z,27.64
2022-08-10T05:30:09.547Z,27.06
2022-08-10T05:32:57.538Z,26.77
2022-08-10T05:35:51.824Z,27.18
2022-08-10T05:38:19.097Z,27.66
2022-08-10T05:40:48.472Z,27.87
2022-08-10T05:43:19.462Z,27.88
2022-08-10T05:46:17.053Z,28.06
2022-08-10T05:48:55.463Z,28.04
2022-08-10T05:51:26.717Z,27.86
2022-08-10T05:54:01.747Z,28.32
2022-08-10T05:56:55.642Z,28.92
2022-08-10T06:00:11.102Z,28.19
2022-08-10T06:02:31.236Z,27.91
2022-08-10T06:05:09.066Z,28.00
2022-08-10T06:07:41.435Z,28.38
2022-08-10T06:10:31.354Z,28.41
2022-08-10T06:13:27.059Z,28.64
2022-08-10T06:16:04.306Z,28.45
2022-08-10T06:18:33.001Z,27.93
2022-08-10T06:21:01.828Z,27.94
2022-08-10T06:23:31.709Z,28.23
2022-08-10T06:26:10.409Z,28.84
2022-08-10T06:28:44.076Z,29.14
2022-08-10T06:31:46.811Z,28.80
2022-08-10T06:34:21.674Z,28.61
2022-08-10T06:36:50.329Z,28.85
2022-08-10T06:39:35.600Z,29.34
2022-08-10T06:42:16.161Z,29.55
2022-08-10T06:44:58.960Z,29.36
2022-08-10T06:47:35.864Z,28.79
2022-08-10T06:50:09.671Z,29.17
2022-08-10T06:52:39.447Z,29.04
2022-08-10T06:55:12.083Z,28.94
2022-08-10T06:57:59.720Z,29.22
2022-08-10T07:00:33.370Z,29.26
2022-08-10T07:03:09.095Z,29.69
2022-08-10T07:05:42.918Z,29.57
2022-08-10T07:08:12.196Z,29.33
2022-08-10T07:10:45.847Z,28.86
2022-08-10T07:14:16.771Z,29.35
2022-08-10T07:16:09.314Z,28.57
2022-08-10T07:18:41.489Z,28.96
2022-08-10T07:21:10.494Z,28.70
2022-08-10T07:23:58.060Z,29.04
2022-08-10T07:26:30.022Z,28.89
2022-08-10T07:29:00.598Z,29.65
2022-08-10T07:31:55.687Z,29.46
2022-08-10T07:34:29.263Z,28.95
2022-08-10T07:37:02.277Z,28.75
2022-08-10T07:40:02.799Z,29.25
2022-08-10T07:42:23.390Z,29.49
2022-08-10T07:44:52.338Z,29.17
2022-08-10T07:47:54.038Z,29.27
2022-08-10T07:50:20.181Z,28.77
2022-08-10T07:52:50.557Z,28.76
2022-08-10T07:56:03.407Z,28.49
2022-08-10T07:58:11.442Z,28.11
2022-08-10T08:00:41.064Z,28.15
2022-08-10T08:03:13.403Z,28.01
2022-08-10T08:05:58.173Z,28.09
2022-08-10T08:08:33.351Z,27.74
2022-08-10T08:11:02.774Z,27.75
2022-08-10T08:13:32.980Z,27.90
2022-08-10T08:16:20.786Z,27.96
2022-08-10T08:19:23.622Z,27.84
2022-08-10T08:24:06.196Z,28.02
2022-08-10T08:24:36.667Z,28.48
2022-08-10T08:27:07.953Z,28.49
2022-08-10T08:29:38.783Z,28.37
2022-08-10T08:32:08.096Z,28.27
2022-08-10T08:34:39.905Z,28.27
2022-08-10T08:37:12.464Z,28.46
2022-08-10T08:39:47.523Z,28.35
2022-08-10T08:42:28.904Z,27.99
2022-08-10T08:45:10.060Z,28.07
2022-08-10T08:48:04.720Z,28.26
2022-08-10T08:50:50.935Z,28.31
2022-08-10T08:54:03.575Z,28.38
2022-08-10T08:56:35.808Z,28.37
2022-08-10T08:59:15.828Z,28.61
2022-08-10T09:01:59.582Z,28.50
2022-08-10T09:04:48.504Z,28.16
2022-08-10T09:08:01.187Z,28.30
2022-08-10T09:10:37.662Z,28.41
2022-08-10T09:13:11.719Z,28.34
2022-08-10T09:15:50.216Z,28.33
2022-08-10T09:18:25.287Z,28.38
2022-08-10T09:21:00.240Z,28.43
2022-08-10T09:24:01.933Z,28.38
2022-08-10T09:26:35.947Z,28.49
2022-08-10T09:29:12.526Z,28.70
2022-08-10T09:32:54.927Z,28.55
2022-08-10T09:36:24.753Z,28.77
2022-08-10T09:38:02.839Z,28.66
2022-08-10T09:40:57.815Z,28.68
2022-08-10T09:43:41.584Z,28.50
2022-08-10T09:46:17.881Z,28.50
2022-08-10T09:48:56.002Z,28.57
2022-08-10T09:51:47.703Z,28.80
2022-08-10T09:54:40.632Z,28.77
2022-08-10T09:57:44.016Z,28.46
2022-08-10T10:00:12.937Z,28.52
2022-08-10T10:02:52.603Z,28.40
2022-08-10T10:05:34.193Z,28.59
2022-08-10T10:08:12.211Z,28.42
2022-08-10T10:10:48.124Z,28.74
2022-08-10T10:13:48.995Z,28.51
2022-08-10T10:16:38.274Z,28.63
2022-08-10T10:19:23.707Z,28.80
2022-08-10T10:22:00.549Z,29.10
2022-08-10T10:24:36.957Z,28.79
2022-08-10T10:27:20.388Z,28.86
2022-08-10T10:30:01.400Z,29.11
2022-08-10T10:32:40.543Z,28.97
2022-08-10T10:35:23.633Z,29.06
2022-08-10T10:38:00.821Z,29.08
2022-08-10T10:40:39.306Z,28.56
2022-08-10T10:43:23.166Z,28.60
2022-08-10T10:46:04.608Z,28.44
2022-08-10T10:48:42.578Z,28.51
2022-08-10T10:51:19.552Z,28.56
2022-08-10T10:54:00.980Z,28.78
2022-08-10T10:56:37.134Z,28.83
2022-08-10T10:59:54.043Z,28.84
2022-08-10T11:02:33.129Z,28.95
2022-08-10T11:05:15.127Z,29.11
2022-08-10T11:07:53.374Z,29.15
2022-08-10T11:10:33.821Z,29.39
2022-08-10T11:14:25.881Z,29.28
2022-08-10T11:16:18.237Z,29.05
2022-08-10T11:19:04.610Z,29.20
2022-08-10T11:21:44.511Z,29.30
2022-08-10T11:24:42.667Z,29.17
2022-08-10T11:27:21.913Z,29.15
2022-08-10T11:29:58.939Z,29.25
2022-08-10T11:32:36.877Z,29.14
2022-08-10T11:35:13.674Z,29.17
2022-08-10T11:38:29.657Z,29.11
2022-08-10T11:40:46.738Z,29.30
2022-08-10T11:43:22.075Z,29.10
2022-08-10T11:45:56.340Z,29.02
2022-08-10T11:48:53.755Z,28.69
2022-08-10T11:51:28.641Z,28.80
2022-08-10T11:54:04.860Z,28.92
2022-08-10T11:56:45.865Z,29.03
2022-08-10T11:59:32.727Z,28.74
2022-08-10T12:02:01.719Z,28.75
2022-08-10T12:04:31.496Z,28.98
2022-08-10T12:07:04.924Z,28.87
2022-08-10T12:10:09.305Z,28.73
2022-08-10T12:12:47.023Z,28.88
2022-08-10T12:15:23.161Z,28.67
2022-08-10T12:17:55.907Z,28.70
2022-08-10T12:20:30.743Z,28.58
2022-08-10T12:23:04.280Z,28.78
2022-08-10T12:25:54.798Z,28.71
2022-08-10T12:28:51.479Z,28.56
2022-08-10T12:31:24.635Z,28.41
2022-08-10T12:34:05.408Z,28.65
2022-08-10T12:36:41.605Z,28.71
2022-08-10T12:39:16.660Z,28.71
2022-08-10T12:41:53.067Z,28.74
2022-08-10T12:44:41.210Z,28.79
2022-08-10T12:47:20.425Z,28.67
2022-08-10T12:50:29.474Z,28.77
2022-08-10T12:52:52.866Z,28.63
2022-08-10T12:55:22.931Z,28.73
2022-08-10T12:57:55.208Z,28.76
2022-08-10T13:00:30.150Z,28.59
2022-08-10T13:03:01.788Z,28.38
2022-08-10T13:05:31.013Z,28.48
2022-08-10T13:08:40.372Z,28.74
2022-08-10T13:12:33.739Z,28.75
2022-08-10T13:14:11.614Z,28.58
2022-08-10T13:16:42.016Z,28.72
2022-08-10T13:19:12.409Z,28.51
2022-08-10T13:21:42.919Z,28.41
2022-08-10T13:24:14.500Z,28.66
2022-08-10T13:26:49.531Z,28.41
2022-08-10T13:29:42.406Z,28.24
2022-08-10T13:32:12.618Z,28.26
2022-08-10T13:34:46.913Z,28.48
2022-08-10T13:37:17.379Z,28.17
2022-08-10T13:39:59.441Z,28.21
2022-08-10T13:42:32.374Z,28.30
2022-08-10T13:45:10.137Z,28.19
2022-08-10T13:47:48.577Z,28.06
2022-08-10T13:50:35.001Z,28.15
2022-08-10T13:53:11.454Z,27.74
2022-08-10T13:55:55.022Z,27.68
2022-08-10T13:58:26.674Z,27.46
2022-08-10T14:00:57.315Z,27.48
2022-08-10T14:03:26.992Z,27.65
2022-08-10T14:05:56.851Z,27.30
2022-08-10T14:08:27.977Z,27.50
2022-08-10T14:11:04.055Z,27.23
2022-08-10T14:13:44.715Z,27.10
2022-08-10T14:16:15.098Z,27.04
2022-08-10T14:18:46.013Z,27.02
2022-08-10T14:21:15.516Z,27.08
2022-08-10T14:23:53.273Z,26.96
2022-08-10T14:26:25.338Z,26.98
2022-08-10T14:28:57.412Z,26.93
2022-08-10T14:31:34.694Z,27.00
2022-08-10T14:34:05.299Z,26.84
2022-08-10T14:36:42.468Z,26.97
2022-08-10T14:39:16.678Z,27.12
2022-08-10T14:42:03.839Z,27.05
2022-08-10T14:44:56.027Z,27.02
2022-08-10T14:47:53.657Z,27.01
2022-08-10T14:50:31.754Z,27.17
2022-08-10T14:53:09.756Z,26.97
2022-08-10T14:55:59.698Z,26.99
2022-08-10T14:58:33.014Z,27.08
2022-08-10T15:01:03.933Z,26.91
2022-08-10T15:04:00.856Z,26.89
2022-08-10T15:06:30.767Z,26.79
2022-08-10T15:09:19.333Z,26.86
2022-08-10T15:12:15.757Z,26.82
2022-08-10T15:14:43.311Z,26.87
2022-08-10T15:17:15.292Z,26.83
2022-08-10T15:20:03.774Z,26.87
2022-08-10T15:22:38.660Z,26.97
2022-08-10T15:25:18.985Z,26.81
2022-08-10T15:27:56.523Z,26.64
2022-08-10T15:30:31.408Z,26.61
2022-08-10T15:33:21.537Z,26.62
2022-08-10T15:36:33.524Z,26.69
2022-08-10T15:39:04.105Z,26.47
2022-08-10T15:41:59.366Z,26.58
2022-08-10T15:44:41.679Z,26.40
2022-08-10T15:47:15.117Z,26.42
2022-08-10T15:49:53.444Z,26.49
2022-08-10T15:52:40.126Z,26.51
2022-08-10T15:55:43.451Z,26.52
2022-08-10T15:58:39.586Z,26.55
2022-08-10T16:02:04.061Z,26.44
2022-08-10T16:04:08.455Z,26.50
2022-08-10T16:06:43.332Z,26.49
2022-08-10T16:10:23.314Z,26.35
2022-08-10T16:12:14.356Z,26.23
2022-08-10T16:14:47.633Z,26.21
2022-08-10T16:17:17.595Z,26.15
2022-08-10T16:19:51.624Z,26.13
2022-08-10T16:22:36.085Z,26.03
2022-08-10T16:25:15.140Z,26.12
2022-08-10T16:27:45.111Z,25.98
2022-08-10T16:30:14.126Z,25.94
2022-08-10T16:32:44.925Z,25.75
2022-08-10T16:35:21.226Z,25.70
2022-08-10T16:37:57.931Z,25.70
2022-08-10T16:40:30.422Z,25.47
2022-08-10T16:43:01.374Z,25.51
2022-08-10T16:45:36.699Z,25.44
2022-08-10T16:48:06.559Z,25.27
2022-08-10T16:50:41.624Z,25.18
2022-08-10T16:53:15.438Z,25.15
2022-08-10T16:55:50.909Z,25.02
2022-08-10T16:58:25.159Z,24.95
2022-08-10T17:00:55.091Z,24.93
2022-08-10T17:04:07.414Z,24.90
2022-08-10T17:06:22.692Z,24.80
2022-08-10T17:08:54.317Z,24.78
2022-08-10T17:11:30.810Z,24.72
2022-08-10T17:13:59.974Z,24.63
2022-08-10T17:16:34.823Z,24.52
2022-08-10T17:19:04.884Z,24.53
2022-08-10T17:21:38.761Z,24.45
2022-08-10T17:24:22.736Z,24.38
2022-08-10T17:26:52.953Z,24.40
2022-08-10T17:29:58.229Z,24.35
2022-08-10T17:32:20.323Z,24.21
2022-08-10T17:34:54.262Z,24.19
2022-08-10T17:37:25.808Z,24.06
2022-08-10T17:40:00.681Z,24.13
2022-08-10T17:42:31.933Z,24.05
2022-08-10T17:45:01.561Z,24.00
2022-08-10T17:47:30.504Z,23.87
2022-08-10T17:50:00.233Z,23.91
2022-08-10T17:52:33.805Z,23.80
2022-08-10T17:55:06.398Z,23.77
2022-08-10T17:57:39.130Z,23.70
2022-08-10T18:00:13.536Z,23.62
2022-08-10T18:02:46.290Z,23.62
2022-08-10T18:05:16.178Z,23.62
2022-08-10T18:07:48.819Z,23.68
2022-08-10T18:10:19.784Z,23.50
2022-08-10T18:12:52.447Z,23.52
2022-08-10T18:15:23.215Z,23.48
2022-08-10T18:17:59.196Z,23.34
2022-08-10T18:20:35.861Z,23.21
2022-08-10T18:23:04.954Z,23.14
2022-08-10T18:25:40.904Z,23.11
2022-08-10T18:28:16.297Z,23.02
2022-08-10T18:30:48.226Z,22.88
2022-08-10T18:33:19.234Z,22.80
2022-08-10T18:35:51.248Z,22.68
2022-08-10T18:38:21.663Z,22.62
2022-08-10T18:40:54.418Z,22.46
2022-08-10T18:44:06.950Z,22.35
2022-08-10T18:46:23.364Z,22.30
2022-08-10T18:48:55.547Z,22.15
2022-08-10T18:51:27.682Z,22.08
2022-08-10T18:54:03.542Z,21.98
2022-08-10T18:56:51.508Z,21.84
2022-08-10T19:00:03.871Z,21.86
2022-08-10T19:02:55.404Z,21.70
2022-08-10T19:05:39.074Z,21.59
2022-08-10T19:08:30.848Z,21.49
2022-08-10T19:11:06.708Z,21.41
2022-08-10T19:13:50.949Z,21.46
2022-08-10T19:16:35.761Z,21.42
2022-08-10T19:19:23.307Z,21.30
2022-08-10T19:22:03.594Z,21.24
2022-08-10T19:24:45.074Z,21.21
2022-08-10T19:27:23.657Z,21.07
2022-08-10T19:30:11.860Z,21.00
2022-08-10T19:32:58.282Z,20.91
2022-08-10T19:36:03.020Z,20.79
2022-08-10T19:38:33.731Z,20.65
2022-08-10T19:41:13.632Z,20.57
2022-08-10T19:44:00.919Z,20.57
2022-08-10T19:46:39.702Z,20.52
2022-08-10T19:49:22.097Z,20.47
2022-08-10T19:51:57.834Z,20.45
2022-08-10T19:54:37.555Z,20.47
2022-08-10T19:57:14.430Z,20.32
2022-08-10T20:00:05.856Z,20.30
2022-08-10T20:02:51.655Z,20.31
2022-08-10T20:05:30.346Z,20.22
2022-08-10T20:08:07.494Z,20.19
2022-08-10T20:10:44.463Z,20.11
2022-08-10T20:13:21.535Z,20.10
2022-08-10T20:16:00.582Z,19.99
2022-08-10T20:18:35.688Z,20.01
2022-08-10T20:21:13.586Z,19.99
2022-08-10T20:23:53.832Z,19.96
2022-08-10T20:26:26.567Z,19.91
2022-08-10T20:29:23.201Z,19.87
2022-08-10T20:32:09.704Z,19.81
2022-08-10T20:34:45.247Z,19.75
2022-08-10T20:38:02.917Z,19.76
2022-08-10T20:40:24.823Z,19.64
2022-08-10T20:43:10.622Z,19.56
2022-08-10T20:46:06.833Z,19.58
2022-08-10T20:48:39.464Z,19.54
2022-08-10T20:51:12.595Z,19.50
2022-08-10T20:53:49.488Z,19.43
2022-08-10T20:56:26.600Z,19.35
2022-08-10T20:59:10.405Z,19.32
2022-08-10T21:02:06.115Z,19.29
2022-08-10T21:04:51.813Z,19.20
2022-08-10T21:08:01.792Z,19.17
2022-08-10T21:10:56.645Z,19.10
2022-08-10T21:13:52.278Z,19.09
2022-08-10T21:16:42.020Z,19.11
2022-08-10T21:19:53.575Z,19.05
2022-08-10T21:22:29.306Z,19.04
2022-08-10T21:25:03.326Z,19.04
2022-08-10T21:28:13.931Z,19.03
2022-08-10T21:31:02.421Z,19.02
2022-08-10T21:33:36.067Z,19.03
2022-08-10T21:36:11.660Z,19.05
2022-08-10T21:38:48.725Z,19.05
2022-08-10T21:41:57.723Z,19.11
2022-08-10T21:45:04.106Z,19.00
2022-08-10T21:48:16.610Z,18.98
2022-08-10T21:51:10.287Z,18.97
2022-08-10T21:54:09.045Z,18.89
2022-08-10T21:56:59.879Z,18.89
2022-08-10T21:59:56.113Z,18.83
2022-08-10T22:02:50.499Z,18.86
2022-08-10T22:05:42.292Z,18.76
2022-08-10T22:08:30.301Z,18.73
2022-08-10T22:11:17.804Z,18.67
2022-08-10T22:14:09.670Z,18.65
2022-08-10T22:17:05.320Z,18.55
2022-08-10T22:19:54.749Z,18.50
2022-08-10T22:22:56.162Z,18.50
2022-08-10T22:25:57.379Z,18.48
2022-08-10T22:28:45.764Z,18.43
2022-08-10T22:31:52.137Z,18.31
2022-08-10T22:35:03.968Z,18.29
2022-08-10T22:37:59.682Z,18.29
2022-08-10T22:40:54.041Z,18.25
2022-08-10T22:43:45.176Z,18.21
2022-08-10T22:46:37.437Z,18.20
2022-08-10T22:49:04.966Z,18.22
2022-08-10T22:51:57.200Z,18.16
2022-08-10T22:55:02.819Z,18.17
2022-08-10T22:57:48.275Z,18.15
2022-08-10T23:00:18.951Z,18.04
2022-08-10T23:02:54.537Z,18.10
2022-08-10T23:05:30.831Z,18.12
2022-08-10T23:08:04.915Z,18.09
2022-08-10T23:10:42.318Z,18.04
2022-08-10T23:13:26.397Z,17.98
2022-08-10T23:16:24.320Z,18.03
2022-08-10T23:19:11.110Z,18.01
2022-08-10T23:22:04.629Z,18.00
2022-08-10T23:24:38.791Z,17.93
2022-08-10T23:27:12.378Z,17.92
2022-08-10T23:30:09.842Z,17.85
2022-08-10T23:32:42.517Z,17.89
2022-08-10T23:36:31.179Z,17.82
2022-08-10T23:38:04.574Z,17.92
2022-08-10T23:40:36.591Z,17.90
2022-08-10T23:43:07.075Z,17.85
2022-08-10T23:45:52.571Z,17.92
2022-08-10T23:48:25.139Z,17.93
2022-08-10T23:50:59.429Z,17.95
2022-08-10T23:53:31.555Z,17.91
2022-08-10T23:56:06.848Z,17.92
2022-08-10T23:58:41.267Z,17.84
